sensor_id;sensor_type;location;lat;lon;timestamp;P1;durP1;ratioP1;P2;durP2;ratioP2
6580;SDS011;3324;50.796;7.228;2023-08-20T00:00:29;13.10;;;12.20;;
6580;SDS011;3324;50.796;7.228;2023-08-20T00:02:59;12.30;;;11.70;;
6580;SDS011;3324;50.796;7.228;2023-08-20T00:08:51;11.20;;;10.70;;
6580;SDS011;3324;50.796;7.228;2023-08-20T00:11:17;11.30;;;10.80;;
6580;SDS011;3324;50.796;7.228;2023-08-20T00:13:43;12.95;;;12.10;;
6580;SDS011;3324;50.796;7.228;2023-08-20T00:16:09;11.40;;;10.80;;
6580;SDS011;3324;50.796;7.228;2023-08-20T00:18:35;11.30;;;10.80;;
6580;SDS011;3324;50.796;7.228;2023-08-20T00:21:01;11.10;;;10.60;;
6580;SDS011;3324;50.796;7.228;2023-08-20T00:23:27;11.70;;;11.10;;
6580;SDS011;3324;50.796;7.228;2023-08-20T00:25:53;12.20;;;11.40;;
6580;SDS011;3324;50.796;7.228;2023-08-20T00:28:20;12.00;;;11.40;;
6580;SDS011;3324;50.796;7.228;2023-08-20T00:30:46;11.60;;;11.00;;
6580;SDS011;3324;50.796;7.228;2023-08-20T00:33:11;11.90;;;11.30;;
6580;SDS011;3324;50.796;7.228;2023-08-20T00:35:38;11.40;;;10.80;;
6580;SDS011;3324;50.796;7.228;2023-08-20T00:38:03;12.30;;;11.50;;
6580;SDS011;3324;50.796;7.228;2023-08-20T00:40:30;11.90;;;11.30;;
6580;SDS011;3324;50.796;7.228;2023-08-20T00:42:56;11.10;;;10.60;;
6580;SDS011;3324;50.796;7.228;2023-08-20T00:45:21;12.13;;;11.53;;
6580;SDS011;3324;50.796;7.228;2023-08-20T00:47:48;10.95;;;10.45;;
6580;SDS011;3324;50.796;7.228;2023-08-20T00:50:14;12.25;;;11.45;;
6580;SDS011;3324;50.796;7.228;2023-08-20T00:52:39;11.30;;;10.80;;
6580;SDS011;3324;50.796;7.228;2023-08-20T00:55:09;11.40;;;10.90;;
6580;SDS011;3324;50.796;7.228;2023-08-20T00:57:36;12.00;;;11.40;;
6580;SDS011;3324;50.796;7.228;2023-08-20T01:00:03;12.00;;;11.40;;
6580;SDS011;3324;50.796;7.228;2023-08-20T01:02:34;11.37;;;10.87;;
6580;SDS011;3324;50.796;7.228;2023-08-20T01:05:01;11.30;;;10.80;;
6580;SDS011;3324;50.796;7.228;2023-08-20T01:08:11;11.80;;;11.20;;
6580;SDS011;3324;50.796;7.228;2023-08-20T01:10:23;11.80;;;11.20;;
6580;SDS011;3324;50.796;7.228;2023-08-20T01:12:58;10.90;;;10.40;;
6580;SDS011;3324;50.796;7.228;2023-08-20T01:15:25;12.73;;;11.93;;
6580;SDS011;3324;50.796;7.228;2023-08-20T01:17:50;11.50;;;11.00;;
6580;SDS011;3324;50.796;7.228;2023-08-20T01:20:16;11.48;;;10.90;;
6580;SDS011;3324;50.796;7.228;2023-08-20T01:22:56;12.20;;;11.40;;
6580;SDS011;3324;50.796;7.228;2023-08-20T01:25:53;11.60;;;11.00;;
6580;SDS011;3324;50.796;7.228;2023-08-20T01:28:25;11.80;;;11.20;;
6580;SDS011;3324;50.796;7.228;2023-08-20T01:30:57;12.60;;;11.80;;
6580;SDS011;3324;50.796;7.228;2023-08-20T01:33:24;11.80;;;11.20;;
6580;SDS011;3324;50.796;7.228;2023-08-20T01:35:53;11.23;;;10.73;;
6580;SDS011;3324;50.796;7.228;2023-08-20T01:38:20;11.40;;;10.90;;
6580;SDS011;3324;50.796;7.228;2023-08-20T01:40:46;11.35;;;10.85;;
6580;SDS011;3324;50.796;7.228;2023-08-20T01:43:12;10.90;;;10.40;;
6580;SDS011;3324;50.796;7.228;2023-08-20T01:45:38;11.20;;;10.50;;
6580;SDS011;3324;50.796;7.228;2023-08-20T01:48:03;11.00;;;10.50;;
6580;SDS011;3324;50.796;7.228;2023-08-20T01:50:30;11.00;;;10.50;;
6580;SDS011;3324;50.796;7.228;2023-08-20T01:52:55;11.80;;;11.10;;
6580;SDS011;3324;50.796;7.228;2023-08-20T01:55:21;11.70;;;11.00;;
6580;SDS011;3324;50.796;7.228;2023-08-20T01:57:47;10.00;;;9.60;;
6580;SDS011;3324;50.796;7.228;2023-08-20T02:00:12;10.70;;;10.20;;
6580;SDS011;3324;50.796;7.228;2023-08-20T02:02:38;11.65;;;10.95;;
6580;SDS011;3324;50.796;7.228;2023-08-20T02:05:04;10.70;;;10.20;;
6580;SDS011;3324;50.796;7.228;2023-08-20T02:07:30;10.95;;;10.45;;
6580;SDS011;3324;50.796;7.228;2023-08-20T02:09:55;11.80;;;11.00;;
6580;SDS011;3324;50.796;7.228;2023-08-20T02:12:21;10.90;;;10.40;;
6580;SDS011;3324;50.796;7.228;2023-08-20T02:14:46;11.00;;;10.50;;
6580;SDS011;3324;50.796;7.228;2023-08-20T02:17:12;11.70;;;11.00;;
6580;SDS011;3324;50.796;7.228;2023-08-20T02:19:39;11.50;;;10.80;;
6580;SDS011;3324;50.796;7.228;2023-08-20T02:22:04;11.00;;;10.50;;
6580;SDS011;3324;50.796;7.228;2023-08-20T02:24:30;11.00;;;10.50;;
6580;SDS011;3324;50.796;7.228;2023-08-20T02:26:56;11.93;;;11.23;;
6580;SDS011;3324;50.796;7.228;2023-08-20T02:29:22;11.10;;;10.60;;
6580;SDS011;3324;50.796;7.228;2023-08-20T02:31:47;11.10;;;10.60;;
6580;SDS011;3324;50.796;7.228;2023-08-20T02:34:13;11.20;;;10.70;;
6580;SDS011;3324;50.796;7.228;2023-08-20T02:36:38;11.90;;;11.20;;
6580;SDS011;3324;50.796;7.228;2023-08-20T02:39:04;11.20;;;10.70;;
6580;SDS011;3324;50.796;7.228;2023-08-20T02:41:32;11.90;;;11.20;;
6580;SDS011;3324;50.796;7.228;2023-08-20T02:46:27;11.07;;;10.57;;
6580;SDS011;3324;50.796;7.228;2023-08-20T02:48:52;11.20;;;10.70;;
6580;SDS011;3324;50.796;7.228;2023-08-20T02:51:18;11.65;;;10.95;;
6580;SDS011;3324;50.796;7.228;2023-08-20T02:53:43;11.10;;;10.60;;
6580;SDS011;3324;50.796;7.228;2023-08-20T02:56:09;11.00;;;10.50;;
6580;SDS011;3324;50.796;7.228;2023-08-20T02:58:35;11.10;;;10.60;;
6580;SDS011;3324;50.796;7.228;2023-08-20T03:01:00;11.20;;;10.70;;
6580;SDS011;3324;50.796;7.228;2023-08-20T03:03:26;11.20;;;10.70;;
6580;SDS011;3324;50.796;7.228;2023-08-20T03:05:52;11.70;;;11.00;;
6580;SDS011;3324;50.796;7.228;2023-08-20T03:08:18;11.07;;;10.57;;
6580;SDS011;3324;50.796;7.228;2023-08-20T03:10:44;11.20;;;10.70;;
6580;SDS011;3324;50.796;7.228;2023-08-20T03:13:09;11.00;;;10.50;;
6580;SDS011;3324;50.796;7.228;2023-08-20T03:15:35;11.60;;;10.90;;
6580;SDS011;3324;50.796;7.228;2023-08-20T03:20:26;11.20;;;10.70;;
6580;SDS011;3324;50.796;7.228;2023-08-20T03:22:53;12.00;;;11.30;;
6580;SDS011;3324;50.796;7.228;2023-08-20T03:25:18;12.90;;;11.70;;
6580;SDS011;3324;50.796;7.228;2023-08-20T03:27:44;11.60;;;11.00;;
6580;SDS011;3324;50.796;7.228;2023-08-20T03:30:10;11.90;;;11.30;;
6580;SDS011;3324;50.796;7.228;2023-08-20T03:32:36;12.40;;;11.60;;
6580;SDS011;3324;50.796;7.228;2023-08-20T03:35:01;11.60;;;11.00;;
6580;SDS011;3324;50.796;7.228;2023-08-20T03:37:27;11.40;;;10.80;;
6580;SDS011;3324;50.796;7.228;2023-08-20T03:39:53;11.90;;;11.30;;
6580;SDS011;3324;50.796;7.228;2023-08-20T03:42:19;13.60;;;12.30;;
6580;SDS011;3324;50.796;7.228;2023-08-20T03:44:44;11.30;;;10.80;;
6580;SDS011;3324;50.796;7.228;2023-08-20T03:47:10;11.70;;;11.10;;
6580;SDS011;3324;50.796;7.228;2023-08-20T03:49:36;12.10;;;11.30;;
6580;SDS011;3324;50.796;7.228;2023-08-20T03:52:02;11.70;;;11.10;;
6580;SDS011;3324;50.796;7.228;2023-08-20T03:54:28;11.70;;;11.10;;
6580;SDS011;3324;50.796;7.228;2023-08-20T03:56:55;11.70;;;11.10;;
6580;SDS011;3324;50.796;7.228;2023-08-20T03:59:20;11.70;;;11.10;;
6580;SDS011;3324;50.796;7.228;2023-08-20T04:01:46;12.30;;;11.50;;
6580;SDS011;3324;50.796;7.228;2023-08-20T04:04:12;11.45;;;10.90;;
6580;SDS011;3324;50.796;7.228;2023-08-20T04:06:37;11.60;;;11.00;;
6580;SDS011;3324;50.796;7.228;2023-08-20T04:09:03;12.50;;;11.70;;
6580;SDS011;3324;50.796;7.228;2023-08-20T04:11:29;11.60;;;11.00;;
6580;SDS011;3324;50.796;7.228;2023-08-20T04:13:54;11.00;;;10.50;;
6580;SDS011;3324;50.796;7.228;2023-08-20T04:16:20;11.80;;;11.20;;
6580;SDS011;3324;50.796;7.228;2023-08-20T04:18:45;12.20;;;11.40;;
6580;SDS011;3324;50.796;7.228;2023-08-20T04:21:11;11.40;;;10.80;;
6580;SDS011;3324;50.796;7.228;2023-08-20T04:23:36;11.60;;;11.00;;
6580;SDS011;3324;50.796;7.228;2023-08-20T04:26:02;12.50;;;11.70;;
6580;SDS011;3324;50.796;7.228;2023-08-20T04:28:28;12.10;;;11.50;;
6580;SDS011;3324;50.796;7.228;2023-08-20T04:30:53;10.83;;;10.33;;
6580;SDS011;3324;50.796;7.228;2023-08-20T04:33:19;11.70;;;11.10;;
6580;SDS011;3324;50.796;7.228;2023-08-20T04:35:46;11.10;;;10.60;;
6580;SDS011;3324;50.796;7.228;2023-08-20T04:40:38;11.90;;;11.30;;
6580;SDS011;3324;50.796;7.228;2023-08-20T04:43:04;11.50;;;10.90;;
6580;SDS011;3324;50.796;7.228;2023-08-20T04:45:29;12.40;;;11.60;;
6580;SDS011;3324;50.796;7.228;2023-08-20T04:47:55;12.30;;;11.70;;
6580;SDS011;3324;50.796;7.228;2023-08-20T04:50:21;11.60;;;11.00;;
6580;SDS011;3324;50.796;7.228;2023-08-20T04:52:46;13.25;;;12.35;;
6580;SDS011;3324;50.796;7.228;2023-08-20T04:55:12;11.30;;;10.70;;
6580;SDS011;3324;50.796;7.228;2023-08-20T04:57:37;13.20;;;12.50;;
6580;SDS011;3324;50.796;7.228;2023-08-20T05:02:29;11.80;;;11.20;;
6580;SDS011;3324;50.796;7.228;2023-08-20T05:04:54;13.40;;;12.60;;
6580;SDS011;3324;50.796;7.228;2023-08-20T05:07:20;12.40;;;11.60;;
6580;SDS011;3324;50.796;7.228;2023-08-20T05:09:46;11.80;;;11.20;;
6580;SDS011;3324;50.796;7.228;2023-08-20T05:12:11;11.67;;;11.07;;
6580;SDS011;3324;50.796;7.228;2023-08-20T05:14:37;14.45;;;13.05;;
6580;SDS011;3324;50.796;7.228;2023-08-20T05:17:03;12.20;;;11.60;;
6580;SDS011;3324;50.796;7.228;2023-08-20T05:19:28;12.80;;;12.10;;
6580;SDS011;3324;50.796;7.228;2023-08-20T05:21:54;11.10;;;10.60;;
6580;SDS011;3324;50.796;7.228;2023-08-20T05:24:23;12.90;;;12.00;;
6580;SDS011;3324;50.796;7.228;2023-08-20T05:29:34;11.70;;;11.10;;
6580;SDS011;3324;50.796;7.228;2023-08-20T05:31:59;11.80;;;11.20;;
6580;SDS011;3324;50.796;7.228;2023-08-20T05:34:25;12.90;;;12.10;;
6580;SDS011;3324;50.796;7.228;2023-08-20T05:36:51;13.67;;;12.67;;
6580;SDS011;3324;50.796;7.228;2023-08-20T05:41:42;12.80;;;12.10;;
6580;SDS011;3324;50.796;7.228;2023-08-20T05:44:09;13.50;;;12.60;;
6580;SDS011;3324;50.796;7.228;2023-08-20T05:46:35;14.13;;;12.82;;
6580;SDS011;3324;50.796;7.228;2023-08-20T05:49:01;13.00;;;12.10;;
6580;SDS011;3324;50.796;7.228;2023-08-20T05:51:26;12.20;;;11.60;;
6580;SDS011;3324;50.796;7.228;2023-08-20T05:53:52;12.45;;;11.75;;
6580;SDS011;3324;50.796;7.228;2023-08-20T05:56:18;13.40;;;12.10;;
6580;SDS011;3324;50.796;7.228;2023-08-20T05:58:43;12.60;;;11.90;;
6580;SDS011;3324;50.796;7.228;2023-08-20T06:01:09;12.90;;;12.20;;
6580;SDS011;3324;50.796;7.228;2023-08-20T06:03:34;13.80;;;12.80;;
6580;SDS011;3324;50.796;7.228;2023-08-20T06:10:51;12.80;;;11.90;;
6580;SDS011;3324;50.796;7.228;2023-08-20T06:15:43;12.50;;;11.80;;
6580;SDS011;3324;50.796;7.228;2023-08-20T06:18:08;13.20;;;12.30;;
6580;SDS011;3324;50.796;7.228;2023-08-20T06:22:59;11.65;;;11.05;;
6580;SDS011;3324;50.796;7.228;2023-08-20T06:27:50;11.40;;;10.80;;
6580;SDS011;3324;50.796;7.228;2023-08-20T06:30:16;12.45;;;11.65;;
6580;SDS011;3324;50.796;7.228;2023-08-20T06:32:42;12.10;;;11.50;;
6580;SDS011;3324;50.796;7.228;2023-08-20T06:35:09;11.90;;;11.30;;
6580;SDS011;3324;50.796;7.228;2023-08-20T06:37:35;11.67;;;11.07;;
6580;SDS011;3324;50.796;7.228;2023-08-20T06:40:01;12.30;;;11.70;;
6580;SDS011;3324;50.796;7.228;2023-08-20T06:42:26;13.60;;;12.30;;
6580;SDS011;3324;50.796;7.228;2023-08-20T06:44:52;11.80;;;11.20;;
6580;SDS011;3324;50.796;7.228;2023-08-20T06:47:17;12.43;;;11.73;;
6580;SDS011;3324;50.796;7.228;2023-08-20T06:49:43;12.95;;;12.05;;
6580;SDS011;3324;50.796;7.228;2023-08-20T06:52:08;12.00;;;11.40;;
6580;SDS011;3324;50.796;7.228;2023-08-20T06:54:34;11.30;;;10.80;;
6580;SDS011;3324;50.796;7.228;2023-08-20T06:57:00;12.70;;;11.90;;
6580;SDS011;3324;50.796;7.228;2023-08-20T06:59:26;12.00;;;11.40;;
6580;SDS011;3324;50.796;7.228;2023-08-20T07:01:52;12.90;;;12.20;;
6580;SDS011;3324;50.796;7.228;2023-08-20T07:04:18;11.90;;;11.30;;
6580;SDS011;3324;50.796;7.228;2023-08-20T07:06:43;12.80;;;11.90;;
6580;SDS011;3324;50.796;7.228;2023-08-20T07:09:09;12.65;;;11.95;;
6580;SDS011;3324;50.796;7.228;2023-08-20T07:11:34;12.80;;;12.10;;
6580;SDS011;3324;50.796;7.228;2023-08-20T07:14:00;13.60;;;12.70;;
6580;SDS011;3324;50.796;7.228;2023-08-20T07:16:26;13.20;;;12.40;;
6580;SDS011;3324;50.796;7.228;2023-08-20T07:18:51;12.70;;;12.00;;
6580;SDS011;3324;50.796;7.228;2023-08-20T07:21:18;13.40;;;12.50;;
6580;SDS011;3324;50.796;7.228;2023-08-20T07:23:43;13.30;;;12.40;;
6580;SDS011;3324;50.796;7.228;2023-08-20T07:26:10;13.10;;;12.30;;
6580;SDS011;3324;50.796;7.228;2023-08-20T07:28:37;14.10;;;13.10;;
6580;SDS011;3324;50.796;7.228;2023-08-20T07:31:21;13.30;;;12.50;;
6580;SDS011;3324;50.796;7.228;2023-08-20T07:33:48;13.40;;;12.60;;
6580;SDS011;3324;50.796;7.228;2023-08-20T07:36:15;13.00;;;12.30;;
6580;SDS011;3324;50.796;7.228;2023-08-20T07:38:41;13.40;;;12.60;;
6580;SDS011;3324;50.796;7.228;2023-08-20T07:41:08;13.50;;;12.70;;
6580;SDS011;3324;50.796;7.228;2023-08-20T07:46:57;13.70;;;12.90;;
6580;SDS011;3324;50.796;7.228;2023-08-20T07:49:23;13.90;;;13.00;;
6580;SDS011;3324;50.796;7.228;2023-08-20T07:51:49;15.40;;;14.20;;
6580;SDS011;3324;50.796;7.228;2023-08-20T07:54:17;13.70;;;12.90;;
6580;SDS011;3324;50.796;7.228;2023-08-20T07:56:43;14.10;;;13.20;;
6580;SDS011;3324;50.796;7.228;2023-08-20T07:59:08;15.10;;;14.00;;
6580;SDS011;3324;50.796;7.228;2023-08-20T08:01:34;14.20;;;13.30;;
6580;SDS011;3324;50.796;7.228;2023-08-20T08:03:59;14.00;;;13.10;;
6580;SDS011;3324;50.796;7.228;2023-08-20T08:06:26;15.47;;;14.47;;
6580;SDS011;3324;50.796;7.228;2023-08-20T08:08:51;13.40;;;12.60;;
6580;SDS011;3324;50.796;7.228;2023-08-20T08:11:17;14.30;;;13.50;;
6580;SDS011;3324;50.796;7.228;2023-08-20T08:13:42;15.80;;;14.60;;
6580;SDS011;3324;50.796;7.228;2023-08-20T08:16:08;14.60;;;13.70;;
6580;SDS011;3324;50.796;7.228;2023-08-20T08:20:59;14.90;;;13.90;;
6580;SDS011;3324;50.796;7.228;2023-08-20T08:23:25;14.40;;;13.50;;
6580;SDS011;3324;50.796;7.228;2023-08-20T08:25:51;15.60;;;14.40;;
6580;SDS011;3324;50.796;7.228;2023-08-20T08:28:16;14.90;;;13.90;;
6580;SDS011;3324;50.796;7.228;2023-08-20T08:30:42;15.70;;;14.60;;
6580;SDS011;3324;50.796;7.228;2023-08-20T08:33:07;16.60;;;15.30;;
6580;SDS011;3324;50.796;7.228;2023-08-20T08:35:33;16.10;;;15.00;;
6580;SDS011;3324;50.796;7.228;2023-08-20T08:37:58;16.60;;;15.40;;
6580;SDS011;3324;50.796;7.228;2023-08-20T08:40:28;16.40;;;15.20;;
6580;SDS011;3324;50.796;7.228;2023-08-20T08:42:55;17.55;;;15.75;;
6580;SDS011;3324;50.796;7.228;2023-08-20T08:45:21;16.60;;;15.40;;
6580;SDS011;3324;50.796;7.228;2023-08-20T08:47:47;17.00;;;15.70;;
6580;SDS011;3324;50.796;7.228;2023-08-20T08:50:13;16.23;;;15.02;;
6580;SDS011;3324;50.796;7.228;2023-08-20T08:52:39;17.20;;;15.70;;
6580;SDS011;3324;50.796;7.228;2023-08-20T08:55:06;17.60;;;16.10;;
6580;SDS011;3324;50.796;7.228;2023-08-20T08:57:34;17.20;;;15.90;;
6580;SDS011;3324;50.796;7.228;2023-08-20T09:00:01;17.10;;;15.80;;
6580;SDS011;3324;50.796;7.228;2023-08-20T09:02:27;17.03;;;15.73;;
6580;SDS011;3324;50.796;7.228;2023-08-20T09:04:52;18.30;;;16.60;;
6580;SDS011;3324;50.796;7.228;2023-08-20T09:07:18;18.23;;;16.73;;
6580;SDS011;3324;50.796;7.228;2023-08-20T09:09:44;18.00;;;16.50;;
6580;SDS011;3324;50.796;7.228;2023-08-20T09:14:45;20.60;;;18.17;;
6580;SDS011;3324;50.796;7.228;2023-08-20T09:17:14;18.67;;;17.07;;
6580;SDS011;3324;50.796;7.228;2023-08-20T09:19:41;18.60;;;17.00;;
6580;SDS011;3324;50.796;7.228;2023-08-20T09:22:12;18.80;;;17.20;;
6580;SDS011;3324;50.796;7.228;2023-08-20T09:24:44;18.55;;;17.05;;
6580;SDS011;3324;50.796;7.228;2023-08-20T09:27:14;17.60;;;16.20;;
6580;SDS011;3324;50.796;7.228;2023-08-20T09:29:43;18.50;;;17.00;;
6580;SDS011;3324;50.796;7.228;2023-08-20T09:32:14;18.80;;;17.20;;
6580;SDS011;3324;50.796;7.228;2023-08-20T09:34:40;18.50;;;16.90;;
6580;SDS011;3324;50.796;7.228;2023-08-20T09:37:10;18.50;;;16.90;;
6580;SDS011;3324;50.796;7.228;2023-08-20T09:39:37;19.40;;;17.70;;
6580;SDS011;3324;50.796;7.228;2023-08-20T09:42:03;17.90;;;16.40;;
6580;SDS011;3324;50.796;7.228;2023-08-20T09:44:34;18.90;;;17.30;;
6580;SDS011;3324;50.796;7.228;2023-08-20T09:47:01;20.70;;;18.30;;
6580;SDS011;3324;50.796;7.228;2023-08-20T09:49:30;19.30;;;17.60;;
6580;SDS011;3324;50.796;7.228;2023-08-20T09:52:01;19.70;;;17.80;;
6580;SDS011;3324;50.796;7.228;2023-08-20T09:57:48;20.00;;;18.00;;
6580;SDS011;3324;50.796;7.228;2023-08-20T10:00:13;19.40;;;17.60;;
6580;SDS011;3324;50.796;7.228;2023-08-20T10:02:39;20.90;;;18.70;;
6580;SDS011;3324;50.796;7.228;2023-08-20T10:05:06;19.98;;;18.08;;
6580;SDS011;3324;50.796;7.228;2023-08-20T10:07:33;20.40;;;18.50;;
6580;SDS011;3324;50.796;7.228;2023-08-20T10:10:03;22.40;;;19.00;;
6580;SDS011;3324;50.796;7.228;2023-08-20T10:12:32;20.40;;;18.40;;
6580;SDS011;3324;50.796;7.228;2023-08-20T10:14:58;19.55;;;17.75;;
6580;SDS011;3324;50.796;7.228;2023-08-20T10:17:25;20.50;;;18.50;;
6580;SDS011;3324;50.796;7.228;2023-08-20T10:19:54;23.45;;;21.25;;
6580;SDS011;3324;50.796;7.228;2023-08-20T10:22:22;24.80;;;22.25;;
6580;SDS011;3324;50.796;7.228;2023-08-20T10:24:56;19.13;;;17.33;;
6580;SDS011;3324;50.796;7.228;2023-08-20T10:29:54;20.30;;;18.30;;
6580;SDS011;3324;50.796;7.228;2023-08-20T10:32:20;21.10;;;19.10;;
6580;SDS011;3324;50.796;7.228;2023-08-20T10:35:06;20.90;;;18.80;;
6580;SDS011;3324;50.796;7.228;2023-08-20T10:37:33;23.52;;;19.70;;
6580;SDS011;3324;50.796;7.228;2023-08-20T10:39:59;21.00;;;18.90;;
6580;SDS011;3324;50.796;7.228;2023-08-20T10:42:25;21.10;;;19.00;;
6580;SDS011;3324;50.796;7.228;2023-08-20T10:47:43;24.80;;;20.30;;
6580;SDS011;3324;50.796;7.228;2023-08-20T10:50:10;20.90;;;18.80;;
6580;SDS011;3324;50.796;7.228;2023-08-20T10:52:40;21.60;;;19.40;;
6580;SDS011;3324;50.796;7.228;2023-08-20T10:55:11;21.70;;;19.50;;
6580;SDS011;3324;50.796;7.228;2023-08-20T10:57:39;24.10;;;20.20;;
6580;SDS011;3324;50.796;7.228;2023-08-20T11:00:06;23.80;;;19.70;;
6580;SDS011;3324;50.796;7.228;2023-08-20T11:02:36;24.30;;;20.00;;
6580;SDS011;3324;50.796;7.228;2023-08-20T11:05:18;23.60;;;19.80;;
6580;SDS011;3324;50.796;7.228;2023-08-20T11:07:46;20.87;;;18.77;;
6580;SDS011;3324;50.796;7.228;2023-08-20T11:10:13;20.60;;;18.60;;
6580;SDS011;3324;50.796;7.228;2023-08-20T11:12:40;20.50;;;18.50;;
6580;SDS011;3324;50.796;7.228;2023-08-20T11:15:07;20.50;;;18.50;;
6580;SDS011;3324;50.796;7.228;2023-08-20T11:17:33;20.70;;;18.70;;
6580;SDS011;3324;50.796;7.228;2023-08-20T11:19:59;20.53;;;18.53;;
6580;SDS011;3324;50.796;7.228;2023-08-20T11:22:25;23.30;;;19.10;;
6580;SDS011;3324;50.796;7.228;2023-08-20T11:24:52;23.20;;;19.50;;
6580;SDS011;3324;50.796;7.228;2023-08-20T11:27:17;20.90;;;18.90;;
6580;SDS011;3324;50.796;7.228;2023-08-20T11:29:43;20.70;;;18.70;;
6580;SDS011;3324;50.796;7.228;2023-08-20T11:32:09;20.50;;;18.50;;
6580;SDS011;3324;50.796;7.228;2023-08-20T11:34:36;21.20;;;19.10;;
6580;SDS011;3324;50.796;7.228;2023-08-20T11:37:03;21.42;;;19.30;;
6580;SDS011;3324;50.796;7.228;2023-08-20T11:39:29;21.30;;;19.20;;
6580;SDS011;3324;50.796;7.228;2023-08-20T11:41:55;20.73;;;18.63;;
6580;SDS011;3324;50.796;7.228;2023-08-20T11:44:21;21.70;;;19.20;;
6580;SDS011;3324;50.796;7.228;2023-08-20T11:46:48;20.80;;;18.80;;
6580;SDS011;3324;50.796;7.228;2023-08-20T11:49:14;21.80;;;19.60;;
6580;SDS011;3324;50.796;7.228;2023-08-20T11:51:41;21.83;;;19.52;;
6580;SDS011;3324;50.796;7.228;2023-08-20T11:54:11;21.60;;;19.40;;
6580;SDS011;3324;50.796;7.228;2023-08-20T11:57:01;22.10;;;19.80;;
6580;SDS011;3324;50.796;7.228;2023-08-20T11:59:29;25.35;;;20.50;;
6580;SDS011;3324;50.796;7.228;2023-08-20T12:01:56;21.60;;;19.40;;
6580;SDS011;3324;50.796;7.228;2023-08-20T12:04:25;23.60;;;20.40;;
6580;SDS011;3324;50.796;7.228;2023-08-20T12:07:12;21.90;;;19.60;;
6580;SDS011;3324;50.796;7.228;2023-08-20T12:09:39;22.23;;;19.83;;
6580;SDS011;3324;50.796;7.228;2023-08-20T12:12:06;27.20;;;21.10;;
6580;SDS011;3324;50.796;7.228;2023-08-20T12:14:32;24.50;;;20.70;;
6580;SDS011;3324;50.796;7.228;2023-08-20T12:16:58;27.20;;;21.10;;
6580;SDS011;3324;50.796;7.228;2023-08-20T12:19:24;22.30;;;19.90;;
6580;SDS011;3324;50.796;7.228;2023-08-20T12:21:50;25.55;;;20.50;;
6580;SDS011;3324;50.796;7.228;2023-08-20T12:24:16;21.90;;;19.70;;
6580;SDS011;3324;50.796;7.228;2023-08-20T12:26:42;22.17;;;19.87;;
6580;SDS011;3324;50.796;7.228;2023-08-20T12:29:08;25.50;;;20.30;;
6580;SDS011;3324;50.796;7.228;2023-08-20T12:31:34;21.10;;;19.00;;
6580;SDS011;3324;50.796;7.228;2023-08-20T12:34:00;21.50;;;19.30;;
6580;SDS011;3324;50.796;7.228;2023-08-20T12:36:26;21.50;;;19.30;;
6580;SDS011;3324;50.796;7.228;2023-08-20T12:38:51;26.40;;;20.70;;
6580;SDS011;3324;50.796;7.228;2023-08-20T12:41:18;22.60;;;20.20;;
6580;SDS011;3324;50.796;7.228;2023-08-20T12:43:44;22.80;;;20.30;;
6580;SDS011;3324;50.796;7.228;2023-08-20T12:46:10;25.90;;;20.70;;
6580;SDS011;3324;50.796;7.228;2023-08-20T12:48:37;21.70;;;19.40;;
6580;SDS011;3324;50.796;7.228;2023-08-20T12:51:02;20.50;;;18.50;;
6580;SDS011;3324;50.796;7.228;2023-08-20T12:53:29;20.70;;;18.70;;
6580;SDS011;3324;50.796;7.228;2023-08-20T12:55:55;22.05;;;19.85;;
6580;SDS011;3324;50.796;7.228;2023-08-20T12:58:21;25.45;;;20.42;;
6580;SDS011;3324;50.796;7.228;2023-08-20T13:00:47;21.40;;;19.20;;
6580;SDS011;3324;50.796;7.228;2023-08-20T13:03:13;21.30;;;19.20;;
6580;SDS011;3324;50.796;7.228;2023-08-20T13:05:39;25.07;;;20.37;;
6580;SDS011;3324;50.796;7.228;2023-08-20T13:08:05;21.20;;;19.10;;
6580;SDS011;3324;50.796;7.228;2023-08-20T13:10:31;21.30;;;19.10;;
6580;SDS011;3324;50.796;7.228;2023-08-20T13:13:00;21.43;;;19.30;;
6580;SDS011;3324;50.796;7.228;2023-08-20T13:15:26;21.50;;;19.30;;
6580;SDS011;3324;50.796;7.228;2023-08-20T13:17:52;23.80;;;21.20;;
6580;SDS011;3324;50.796;7.228;2023-08-20T13:20:19;23.15;;;20.30;;
6580;SDS011;3324;50.796;7.228;2023-08-20T13:22:49;23.10;;;20.30;;
6580;SDS011;3324;50.796;7.228;2023-08-20T13:25:15;22.50;;;20.10;;
6580;SDS011;3324;50.796;7.228;2023-08-20T13:27:41;25.70;;;20.50;;
6580;SDS011;3324;50.796;7.228;2023-08-20T13:30:07;21.60;;;19.40;;
6580;SDS011;3324;50.796;7.228;2023-08-20T13:32:34;22.00;;;19.70;;
6580;SDS011;3324;50.796;7.228;2023-08-20T13:35:00;21.80;;;19.60;;
6580;SDS011;3324;50.796;7.228;2023-08-20T13:37:25;25.30;;;20.40;;
6580;SDS011;3324;50.796;7.228;2023-08-20T13:39:52;22.70;;;20.30;;
6580;SDS011;3324;50.796;7.228;2023-08-20T13:42:17;21.80;;;19.50;;
6580;SDS011;3324;50.796;7.228;2023-08-20T13:44:43;26.80;;;20.80;;
6580;SDS011;3324;50.796;7.228;2023-08-20T13:47:09;22.15;;;19.75;;
6580;SDS011;3324;50.796;7.228;2023-08-20T13:49:34;22.00;;;19.70;;
6580;SDS011;3324;50.796;7.228;2023-08-20T13:52:00;21.90;;;19.60;;
6580;SDS011;3324;50.796;7.228;2023-08-20T13:54:25;22.30;;;19.90;;
6580;SDS011;3324;50.796;7.228;2023-08-20T13:56:51;27.70;;;21.20;;
6580;SDS011;3324;50.796;7.228;2023-08-20T13:59:16;22.30;;;19.90;;
6580;SDS011;3324;50.796;7.228;2023-08-20T14:01:42;27.90;;;20.90;;
6580;SDS011;3324;50.796;7.228;2023-08-20T14:04:08;22.20;;;19.80;;
6580;SDS011;3324;50.796;7.228;2023-08-20T14:06:33;29.70;;;22.90;;
6580;SDS011;3324;50.796;7.228;2023-08-20T14:08:59;22.50;;;20.10;;
6580;SDS011;3324;50.796;7.228;2023-08-20T14:11:24;23.50;;;20.90;;
6580;SDS011;3324;50.796;7.228;2023-08-20T14:13:50;22.50;;;20.10;;
6580;SDS011;3324;50.796;7.228;2023-08-20T14:16:16;22.90;;;20.40;;
6580;SDS011;3324;50.796;7.228;2023-08-20T14:18:42;26.20;;;20.70;;
6580;SDS011;3324;50.796;7.228;2023-08-20T14:21:07;22.30;;;19.90;;
6580;SDS011;3324;50.796;7.228;2023-08-20T14:23:33;22.10;;;19.80;;
6580;SDS011;3324;50.796;7.228;2023-08-20T14:26:00;26.07;;;20.50;;
6580;SDS011;3324;50.796;7.228;2023-08-20T14:28:25;21.80;;;19.50;;
6580;SDS011;3324;50.796;7.228;2023-08-20T14:30:51;22.65;;;20.25;;
6580;SDS011;3324;50.796;7.228;2023-08-20T14:33:19;21.87;;;19.47;;
6580;SDS011;3324;50.796;7.228;2023-08-20T14:35:45;23.10;;;20.60;;
6580;SDS011;3324;50.796;7.228;2023-08-20T14:38:11;27.50;;;21.30;;
6580;SDS011;3324;50.796;7.228;2023-08-20T14:40:37;23.07;;;20.57;;
6580;SDS011;3324;50.796;7.228;2023-08-20T14:43:05;24.10;;;20.30;;
6580;SDS011;3324;50.796;7.228;2023-08-20T14:45:34;22.80;;;20.30;;
6580;SDS011;3324;50.796;7.228;2023-08-20T14:48:00;22.90;;;20.40;;
6580;SDS011;3324;50.796;7.228;2023-08-20T14:50:25;23.57;;;21.07;;
6580;SDS011;3324;50.796;7.228;2023-08-20T14:52:51;21.80;;;19.50;;
6580;SDS011;3324;50.796;7.228;2023-08-20T14:55:20;22.20;;;19.80;;
6580;SDS011;3324;50.796;7.228;2023-08-20T14:57:46;26.50;;;20.77;;
6580;SDS011;3324;50.796;7.228;2023-08-20T15:00:12;21.90;;;19.60;;
6580;SDS011;3324;50.796;7.228;2023-08-20T15:02:42;22.00;;;19.70;;
6580;SDS011;3324;50.796;7.228;2023-08-20T15:05:09;21.80;;;19.50;;
6580;SDS011;3324;50.796;7.228;2023-08-20T15:07:36;20.90;;;18.80;;
6580;SDS011;3324;50.796;7.228;2023-08-20T15:10:04;21.40;;;19.20;;
6580;SDS011;3324;50.796;7.228;2023-08-20T15:12:32;24.90;;;20.30;;
6580;SDS011;3324;50.796;7.228;2023-08-20T15:14:58;21.33;;;19.13;;
6580;SDS011;3324;50.796;7.228;2023-08-20T15:17:24;26.10;;;20.95;;
6580;SDS011;3324;50.796;7.228;2023-08-20T15:19:50;21.10;;;19.00;;
6580;SDS011;3324;50.796;7.228;2023-08-20T15:22:15;21.10;;;19.00;;
6580;SDS011;3324;50.796;7.228;2023-08-20T15:24:42;24.70;;;19.90;;
6580;SDS011;3324;50.796;7.228;2023-08-20T15:27:08;21.10;;;19.00;;
6580;SDS011;3324;50.796;7.228;2023-08-20T15:29:33;21.30;;;19.10;;
6580;SDS011;3324;50.796;7.228;2023-08-20T15:31:59;24.90;;;20.20;;